sensor_id;sensor_type;location;lat;lon;timestamp;P1;durP1;ratioP1;P2;durP2;ratioP2
59157;SDS011;44940;55.060;73.168;2022-07-22T00:01:21;6.82;;;3.83;;
59157;SDS011;44940;55.060;73.168;2022-07-22T00:03:48;6.93;;;4.40;;
59157;SDS011;44940;55.060;73.168;2022-07-22T00:06:15;6.95;;;3.17;;
59157;SDS011;44940;55.060;73.168;2022-07-22T00:08:42;5.80;;;3.45;;
59157;SDS011;44940;55.060;73.168;2022-07-22T00:11:11;7.38;;;3.58;;
59157;SDS011;44940;55.060;73.168;2022-07-22T00:13:38;5.45;;;3.60;;
59157;SDS011;44940;55.060;73.168;2022-07-22T00:16:07;7.60;;;3.70;;
59157;SDS011;44940;55.060;73.168;2022-07-22T00:18:35;5.68;;;3.45;;
59157;SDS011;44940;55.060;73.168;2022-07-22T00:21:02;5.13;;;3.20;;
59157;SDS011;44940;55.060;73.168;2022-07-22T00:23:31;6.57;;;3.30;;
59157;SDS011;44940;55.060;73.168;2022-07-22T00:25:58;5.68;;;3.30;;
59157;SDS011;44940;55.060;73.168;2022-07-22T00:28:29;4.95;;;2.90;;
59157;SDS011;44940;55.060;73.168;2022-07-22T00:30:56;5.75;;;2.95;;
59157;SDS011;44940;55.060;73.168;2022-07-22T00:33:24;6.32;;;3.60;;
59157;SDS011;44940;55.060;73.168;2022-07-22T00:35:51;6.32;;;3.65;;
59157;SDS011;44940;55.060;73.168;2022-07-22T00:38:18;5.82;;;3.28;;
59157;SDS011;44940;55.060;73.168;2022-07-22T00:40:45;5.40;;;3.65;;
59157;SDS011;44940;55.060;73.168;2022-07-22T00:43:12;5.10;;;3.13;;
59157;SDS011;44940;55.060;73.168;2022-07-22T00:45:41;4.38;;;3.05;;
59157;SDS011;44940;55.060;73.168;2022-07-22T00:48:08;6.63;;;4.03;;
59157;SDS011;44940;55.060;73.168;2022-07-22T00:50:38;6.63;;;3.15;;
59157;SDS011;44940;55.060;73.168;2022-07-22T00:53:05;5.15;;;3.40;;
59157;SDS011;44940;55.060;73.168;2022-07-22T00:55:32;5.90;;;3.28;;
59157;SDS011;44940;55.060;73.168;2022-07-22T00:58:03;5.60;;;3.25;;
59157;SDS011;44940;55.060;73.168;2022-07-22T01:00:30;7.03;;;3.35;;
59157;SDS011;44940;55.060;73.168;2022-07-22T01:02:59;5.57;;;3.38;;
59157;SDS011;44940;55.060;73.168;2022-07-22T01:05:26;6.45;;;3.33;;
59157;SDS011;44940;55.060;73.168;2022-07-22T01:07:53;5.15;;;3.22;;
59157;SDS011;44940;55.060;73.168;2022-07-22T01:10:21;4.68;;;3.13;;
59157;SDS011;44940;55.060;73.168;2022-07-22T01:12:48;6.25;;;2.95;;
59157;SDS011;44940;55.060;73.168;2022-07-22T01:15:15;7.38;;;3.42;;
59157;SDS011;44940;55.060;73.168;2022-07-22T01:17:43;8.25;;;3.80;;
59157;SDS011;44940;55.060;73.168;2022-07-22T01:20:11;7.88;;;2.97;;
59157;SDS011;44940;55.060;73.168;2022-07-22T01:22:43;6.65;;;3.67;;
59157;SDS011;44940;55.060;73.168;2022-07-22T01:25:11;5.40;;;3.15;;
59157;SDS011;44940;55.060;73.168;2022-07-22T01:27:38;6.18;;;3.70;;
59157;SDS011;44940;55.060;73.168;2022-07-22T01:30:06;5.47;;;3.10;;
59157;SDS011;44940;55.060;73.168;2022-07-22T01:32:34;6.00;;;3.50;;
59157;SDS011;44940;55.060;73.168;2022-07-22T01:35:01;5.30;;;3.03;;
59157;SDS011;44940;55.060;73.168;2022-07-22T01:37:31;7.70;;;3.35;;
59157;SDS011;44940;55.060;73.168;2022-07-22T01:39:59;5.15;;;2.47;;
59157;SDS011;44940;55.060;73.168;2022-07-22T01:42:26;5.05;;;2.63;;
59157;SDS011;44940;55.060;73.168;2022-07-22T01:44:53;5.72;;;2.90;;
59157;SDS011;44940;55.060;73.168;2022-07-22T01:47:20;4.07;;;2.60;;
59157;SDS011;44940;55.060;73.168;2022-07-22T01:49:48;5.95;;;2.85;;
59157;SDS011;44940;55.060;73.168;2022-07-22T01:52:16;3.58;;;2.30;;
59157;SDS011;44940;55.060;73.168;2022-07-22T01:54:45;6.80;;;2.25;;
59157;SDS011;44940;55.060;73.168;2022-07-22T01:57:12;3.25;;;2.45;;
59157;SDS011;44940;55.060;73.168;2022-07-22T01:59:45;3.75;;;2.30;;
59157;SDS011;44940;55.060;73.168;2022-07-22T02:02:13;3.65;;;2.47;;
59157;SDS011;44940;55.060;73.168;2022-07-22T02:04:41;8.77;;;2.33;;
59157;SDS011;44940;55.060;73.168;2022-07-22T02:07:09;3.28;;;2.22;;
59157;SDS011;44940;55.060;73.168;2022-07-22T02:09:39;4.15;;;2.42;;
59157;SDS011;44940;55.060;73.168;2022-07-22T02:12:08;5.68;;;2.40;;
59157;SDS011;44940;55.060;73.168;2022-07-22T02:14:42;4.10;;;2.30;;
59157;SDS011;44940;55.060;73.168;2022-07-22T02:17:09;4.28;;;2.70;;
59157;SDS011;44940;55.060;73.168;2022-07-22T02:19:38;4.72;;;2.85;;
59157;SDS011;44940;55.060;73.168;2022-07-22T02:22:05;4.53;;;2.55;;
59157;SDS011;44940;55.060;73.168;2022-07-22T02:24:32;3.95;;;2.45;;
59157;SDS011;44940;55.060;73.168;2022-07-22T02:26:59;3.88;;;2.45;;
59157;SDS011;44940;55.060;73.168;2022-07-22T02:29:28;6.63;;;2.65;;
59157;SDS011;44940;55.060;73.168;2022-07-22T02:31:56;5.85;;;2.92;;
59157;SDS011;44940;55.060;73.168;2022-07-22T02:34:23;7.45;;;2.88;;
59157;SDS011;44940;55.060;73.168;2022-07-22T02:36:50;5.30;;;3.30;;
59157;SDS011;44940;55.060;73.168;2022-07-22T02:39:19;5.72;;;3.10;;
59157;SDS011;44940;55.060;73.168;2022-07-22T02:41:46;5.55;;;3.38;;
59157;SDS011;44940;55.060;73.168;2022-07-22T02:44:13;7.25;;;3.70;;
59157;SDS011;44940;55.060;73.168;2022-07-22T02:46:42;5.47;;;4.00;;
59157;SDS011;44940;55.060;73.168;2022-07-22T02:49:14;7.13;;;4.20;;
59157;SDS011;44940;55.060;73.168;2022-07-22T02:51:41;6.80;;;4.07;;
59157;SDS011;44940;55.060;73.168;2022-07-22T02:54:08;7.63;;;4.13;;
59157;SDS011;44940;55.060;73.168;2022-07-22T02:56:38;6.32;;;3.95;;
59157;SDS011;44940;55.060;73.168;2022-07-22T02:59:05;9.20;;;4.13;;
59157;SDS011;44940;55.060;73.168;2022-07-22T03:01:32;7.60;;;4.70;;
59157;SDS011;44940;55.060;73.168;2022-07-22T03:04:02;6.78;;;3.17;;
59157;SDS011;44940;55.060;73.168;2022-07-22T03:06:32;6.32;;;4.45;;
59157;SDS011;44940;55.060;73.168;2022-07-22T03:09:07;6.15;;;3.97;;
59157;SDS011;44940;55.060;73.168;2022-07-22T03:11:36;6.82;;;4.43;;
59157;SDS011;44940;55.060;73.168;2022-07-22T03:14:04;6.53;;;3.80;;
59157;SDS011;44940;55.060;73.168;2022-07-22T03:16:31;6.25;;;4.43;;
59157;SDS011;44940;55.060;73.168;2022-07-22T03:19:02;6.93;;;4.55;;
59157;SDS011;44940;55.060;73.168;2022-07-22T03:21:29;6.93;;;4.20;;
59157;SDS011;44940;55.060;73.168;2022-07-22T03:23:59;7.57;;;4.57;;
59157;SDS011;44940;55.060;73.168;2022-07-22T03:26:26;7.13;;;4.60;;
59157;SDS011;44940;55.060;73.168;2022-07-22T03:28:53;7.35;;;4.65;;
59157;SDS011;44940;55.060;73.168;2022-07-22T03:31:20;9.10;;;4.78;;
59157;SDS011;44940;55.060;73.168;2022-07-22T03:33:47;7.32;;;4.78;;
59157;SDS011;44940;55.060;73.168;2022-07-22T03:36:16;6.93;;;4.10;;
59157;SDS011;44940;55.060;73.168;2022-07-22T03:38:49;7.22;;;4.68;;
59157;SDS011;44940;55.060;73.168;2022-07-22T03:41:17;7.57;;;4.68;;
59157;SDS011;44940;55.060;73.168;2022-07-22T03:43:44;7.22;;;4.43;;
59157;SDS011;44940;55.060;73.168;2022-07-22T03:46:14;8.48;;;5.18;;
59157;SDS011;44940;55.060;73.168;2022-07-22T03:48:42;10.32;;;4.95;;
59157;SDS011;44940;55.060;73.168;2022-07-22T03:51:11;7.32;;;4.57;;
59157;SDS011;44940;55.060;73.168;2022-07-22T03:53:39;9.05;;;5.70;;
59157;SDS011;44940;55.060;73.168;2022-07-22T03:56:09;12.47;;;5.27;;
59157;SDS011;44940;55.060;73.168;2022-07-22T03:58:39;7.78;;;5.55;;
59157;SDS011;44940;55.060;73.168;2022-07-22T04:01:08;10.32;;;6.03;;
59157;SDS011;44940;55.060;73.168;2022-07-22T04:03:35;9.50;;;5.30;;
59157;SDS011;44940;55.060;73.168;2022-07-22T04:06:28;8.07;;;5.22;;
59157;SDS011;44940;55.060;73.168;2022-07-22T04:09:09;7.95;;;5.65;;
59157;SDS011;44940;55.060;73.168;2022-07-22T04:11:38;7.25;;;5.18;;
59157;SDS011;44940;55.060;73.168;2022-07-22T04:14:05;6.35;;;4.22;;
59157;SDS011;44940;55.060;73.168;2022-07-22T04:16:32;6.47;;;4.60;;
59157;SDS011;44940;55.060;73.168;2022-07-22T04:19:06;6.63;;;4.95;;
59157;SDS011;44940;55.060;73.168;2022-07-22T04:22:00;9.02;;;4.85;;
59157;SDS011;44940;55.060;73.168;2022-07-22T04:24:32;7.38;;;5.43;;
59157;SDS011;44940;55.060;73.168;2022-07-22T04:26:59;7.25;;;5.40;;
59157;SDS011;44940;55.060;73.168;2022-07-22T04:29:28;7.65;;;5.88;;
59157;SDS011;44940;55.060;73.168;2022-07-22T04:31:55;6.60;;;5.00;;
59157;SDS011;44940;55.060;73.168;2022-07-22T04:34:22;8.40;;;5.35;;
59157;SDS011;44940;55.060;73.168;2022-07-22T04:36:50;8.35;;;5.68;;
59157;SDS011;44940;55.060;73.168;2022-07-22T04:39:17;7.53;;;5.13;;
59157;SDS011;44940;55.060;73.168;2022-07-22T04:41:52;9.05;;;5.85;;
59157;SDS011;44940;55.060;73.168;2022-07-22T04:44:20;6.90;;;5.65;;
59157;SDS011;44940;55.060;73.168;2022-07-22T04:46:48;9.88;;;6.10;;
59157;SDS011;44940;55.060;73.168;2022-07-22T04:49:15;9.02;;;5.97;;
59157;SDS011;44940;55.060;73.168;2022-07-22T04:51:42;7.45;;;5.22;;
59157;SDS011;44940;55.060;73.168;2022-07-22T04:54:14;9.85;;;5.80;;
59157;SDS011;44940;55.060;73.168;2022-07-22T04:56:43;7.72;;;5.28;;
59157;SDS011;44940;55.060;73.168;2022-07-22T04:59:12;10.05;;;5.40;;
59157;SDS011;44940;55.060;73.168;2022-07-22T05:01:40;7.30;;;5.75;;
59157;SDS011;44940;55.060;73.168;2022-07-22T05:04:07;8.13;;;5.47;;
59157;SDS011;44940;55.060;73.168;2022-07-22T05:06:37;7.75;;;6.05;;
59157;SDS011;44940;55.060;73.168;2022-07-22T05:09:04;6.97;;;5.72;;
59157;SDS011;44940;55.060;73.168;2022-07-22T05:11:32;11.50;;;6.05;;
59157;SDS011;44940;55.060;73.168;2022-07-22T05:14:03;8.02;;;5.95;;
59157;SDS011;44940;55.060;73.168;2022-07-22T05:16:32;8.32;;;5.50;;
59157;SDS011;44940;55.060;73.168;2022-07-22T05:19:01;8.00;;;5.20;;
59157;SDS011;44940;55.060;73.168;2022-07-22T05:21:28;9.90;;;5.50;;
59157;SDS011;44940;55.060;73.168;2022-07-22T05:23:56;10.10;;;5.68;;
59157;SDS011;44940;55.060;73.168;2022-07-22T05:26:25;6.22;;;4.88;;
59157;SDS011;44940;55.060;73.168;2022-07-22T05:28:54;7.10;;;5.82;;
59157;SDS011;44940;55.060;73.168;2022-07-22T05:31:22;7.78;;;5.40;;
59157;SDS011;44940;55.060;73.168;2022-07-22T05:33:50;6.97;;;5.03;;
59157;SDS011;44940;55.060;73.168;2022-07-22T05:36:30;7.28;;;5.70;;
59157;SDS011;44940;55.060;73.168;2022-07-22T05:38:58;7.35;;;5.10;;
59157;SDS011;44940;55.060;73.168;2022-07-22T05:41:25;8.43;;;5.97;;
59157;SDS011;44940;55.060;73.168;2022-07-22T05:43:53;6.95;;;5.57;;
59157;SDS011;44940;55.060;73.168;2022-07-22T05:46:20;6.78;;;5.30;;
59157;SDS011;44940;55.060;73.168;2022-07-22T05:48:48;6.88;;;6.00;;
59157;SDS011;44940;55.060;73.168;2022-07-22T05:51:17;9.95;;;6.32;;
59157;SDS011;44940;55.060;73.168;2022-07-22T05:53:44;7.97;;;5.72;;
59157;SDS011;44940;55.060;73.168;2022-07-22T05:56:14;10.07;;;6.57;;
59157;SDS011;44940;55.060;73.168;2022-07-22T05:58:41;8.38;;;6.22;;
59157;SDS011;44940;55.060;73.168;2022-07-22T06:01:09;10.13;;;6.35;;
59157;SDS011;44940;55.060;73.168;2022-07-22T06:03:37;9.18;;;5.68;;
59157;SDS011;44940;55.060;73.168;2022-07-22T06:06:04;8.23;;;6.32;;
59157;SDS011;44940;55.060;73.168;2022-07-22T06:08:37;7.93;;;6.03;;
59157;SDS011;44940;55.060;73.168;2022-07-22T06:11:04;6.45;;;5.63;;
59157;SDS011;44940;55.060;73.168;2022-07-22T06:13:34;9.52;;;6.07;;
59157;SDS011;44940;55.060;73.168;2022-07-22T06:16:01;6.53;;;5.38;;
59157;SDS011;44940;55.060;73.168;2022-07-22T06:18:30;7.05;;;6.03;;
59157;SDS011;44940;55.060;73.168;2022-07-22T06:20:57;6.47;;;5.80;;
59157;SDS011;44940;55.060;73.168;2022-07-22T06:23:24;7.68;;;6.07;;
59157;SDS011;44940;55.060;73.168;2022-07-22T06:25:55;7.45;;;5.82;;
59157;SDS011;44940;55.060;73.168;2022-07-22T06:28:30;6.28;;;5.50;;
59157;SDS011;44940;55.060;73.168;2022-07-22T06:30:58;8.63;;;5.53;;
59157;SDS011;44940;55.060;73.168;2022-07-22T06:33:26;7.50;;;5.97;;
59157;SDS011;44940;55.060;73.168;2022-07-22T06:35:53;8.20;;;6.10;;
59157;SDS011;44940;55.060;73.168;2022-07-22T06:38:22;8.70;;;5.78;;
59157;SDS011;44940;55.060;73.168;2022-07-22T06:41:10;8.73;;;5.50;;
59157;SDS011;44940;55.060;73.168;2022-07-22T06:43:55;9.80;;;5.72;;
59157;SDS011;44940;55.060;73.168;2022-07-22T06:46:33;7.10;;;5.78;;
59157;SDS011;44940;55.060;73.168;2022-07-22T06:49:04;6.85;;;6.15;;
59157;SDS011;44940;55.060;73.168;2022-07-22T06:51:35;8.93;;;5.90;;
59157;SDS011;44940;55.060;73.168;2022-07-22T06:54:02;6.88;;;5.43;;
59157;SDS011;44940;55.060;73.168;2022-07-22T06:56:31;8.75;;;5.68;;
59157;SDS011;44940;55.060;73.168;2022-07-22T06:58:58;7.28;;;5.85;;
59157;SDS011;44940;55.060;73.168;2022-07-22T07:01:25;6.82;;;5.63;;
59157;SDS011;44940;55.060;73.168;2022-07-22T07:03:54;6.68;;;5.40;;
59157;SDS011;44940;55.060;73.168;2022-07-22T07:06:21;7.88;;;5.07;;
59157;SDS011;44940;55.060;73.168;2022-07-22T07:09:03;6.47;;;5.13;;
59157;SDS011;44940;55.060;73.168;2022-07-22T07:11:32;6.68;;;5.63;;
59157;SDS011;44940;55.060;73.168;2022-07-22T07:14:02;7.32;;;5.57;;
59157;SDS011;44940;55.060;73.168;2022-07-22T07:16:29;14.45;;;5.65;;
59157;SDS011;44940;55.060;73.168;2022-07-22T07:18:56;5.47;;;4.65;;
59157;SDS011;44940;55.060;73.168;2022-07-22T07:21:23;8.02;;;5.35;;
59157;SDS011;44940;55.060;73.168;2022-07-22T07:23:51;7.10;;;5.40;;
59157;SDS011;44940;55.060;73.168;2022-07-22T07:26:19;6.68;;;4.82;;
59157;SDS011;44940;55.060;73.168;2022-07-22T07:28:48;8.82;;;4.78;;
59157;SDS011;44940;55.060;73.168;2022-07-22T07:31:37;5.50;;;4.55;;
59157;SDS011;44940;55.060;73.168;2022-07-22T07:34:12;6.55;;;4.75;;
59157;SDS011;44940;55.060;73.168;2022-07-22T07:36:39;7.65;;;5.00;;
59157;SDS011;44940;55.060;73.168;2022-07-22T07:39:06;6.32;;;5.30;;
59157;SDS011;44940;55.060;73.168;2022-07-22T07:41:34;7.65;;;5.40;;
59157;SDS011;44940;55.060;73.168;2022-07-22T07:44:03;6.00;;;5.40;;
59157;SDS011;44940;55.060;73.168;2022-07-22T07:46:31;6.00;;;5.00;;
59157;SDS011;44940;55.060;73.168;2022-07-22T07:48:58;6.38;;;5.00;;
59157;SDS011;44940;55.060;73.168;2022-07-22T07:51:26;8.43;;;5.10;;
59157;SDS011;44940;55.060;73.168;2022-07-22T07:53:53;8.43;;;5.57;;
59157;SDS011;44940;55.060;73.168;2022-07-22T07:56:21;5.38;;;4.88;;
59157;SDS011;44940;55.060;73.168;2022-07-22T07:58:48;5.72;;;4.85;;
59157;SDS011;44940;55.060;73.168;2022-07-22T08:01:17;5.63;;;4.28;;
59157;SDS011;44940;55.060;73.168;2022-07-22T08:03:45;5.25;;;4.65;;
59157;SDS011;44940;55.060;73.168;2022-07-22T08:06:12;9.18;;;5.40;;
59157;SDS011;44940;55.060;73.168;2022-07-22T08:08:40;8.70;;;5.38;;
59157;SDS011;44940;55.060;73.168;2022-07-22T08:11:15;7.28;;;5.43;;
59157;SDS011;44940;55.060;73.168;2022-07-22T08:13:53;6.80;;;5.10;;
59157;SDS011;44940;55.060;73.168;2022-07-22T08:16:44;9.43;;;5.63;;
59157;SDS011;44940;55.060;73.168;2022-07-22T08:19:13;10.50;;;5.55;;
59157;SDS011;44940;55.060;73.168;2022-07-22T08:21:40;8.65;;;5.80;;
59157;SDS011;44940;55.060;73.168;2022-07-22T08:24:27;6.95;;;4.82;;
59157;SDS011;44940;55.060;73.168;2022-07-22T08:26:58;7.90;;;5.18;;
59157;SDS011;44940;55.060;73.168;2022-07-22T08:29:26;7.47;;;5.40;;
59157;SDS011;44940;55.060;73.168;2022-07-22T08:31:54;7.47;;;5.30;;
59157;SDS011;44940;55.060;73.168;2022-07-22T08:34:21;5.88;;;4.38;;
59157;SDS011;44940;55.060;73.168;2022-07-22T08:36:48;5.85;;;4.60;;
59157;SDS011;44940;55.060;73.168;2022-07-22T08:39:16;5.00;;;4.20;;
59157;SDS011;44940;55.060;73.168;2022-07-22T08:41:43;6.75;;;4.53;;
59157;SDS011;44940;55.060;73.168;2022-07-22T08:44:10;5.47;;;4.72;;
59157;SDS011;44940;55.060;73.168;2022-07-22T08:46:38;10.57;;;5.57;;
59157;SDS011;44940;55.060;73.168;2022-07-22T08:49:32;6.85;;;5.93;;
59157;SDS011;44940;55.060;73.168;2022-07-22T08:52:25;7.43;;;6.15;;
59157;SDS011;44940;55.060;73.168;2022-07-22T08:54:53;7.32;;;5.88;;
59157;SDS011;44940;55.060;73.168;2022-07-22T08:57:20;8.30;;;6.38;;
59157;SDS011;44940;55.060;73.168;2022-07-22T08:59:50;9.32;;;6.30;;
59157;SDS011;44940;55.060;73.168;2022-07-22T09:02:18;13.15;;;6.78;;
59157;SDS011;44940;55.060;73.168;2022-07-22T09:04:52;7.53;;;5.97;;
59157;SDS011;44940;55.060;73.168;2022-07-22T09:07:24;6.95;;;5.78;;
59157;SDS011;44940;55.060;73.168;2022-07-22T09:09:54;6.57;;;5.30;;
59157;SDS011;44940;55.060;73.168;2022-07-22T09:12:22;6.45;;;5.43;;
59157;SDS011;44940;55.060;73.168;2022-07-22T09:15:25;6.97;;;5.32;;
59157;SDS011;44940;55.060;73.168;2022-07-22T09:18:13;6.20;;;4.90;;
59157;SDS011;44940;55.060;73.168;2022-07-22T09:21:01;8.82;;;5.25;;
59157;SDS011;44940;55.060;73.168;2022-07-22T09:23:51;8.10;;;5.53;;
59157;SDS011;44940;55.060;73.168;2022-07-22T09:26:29;6.30;;;5.13;;
59157;SDS011;44940;55.060;73.168;2022-07-22T09:29:20;7.00;;;5.55;;
59157;SDS011;44940;55.060;73.168;2022-07-22T09:32:07;7.32;;;5.78;;
59157;SDS011;44940;55.060;73.168;2022-07-22T09:35:01;9.98;;;5.80;;
59157;SDS011;44940;55.060;73.168;2022-07-22T09:37:33;7.88;;;5.30;;
59157;SDS011;44940;55.060;73.168;2022-07-22T09:40:13;7.45;;;4.60;;
59157;SDS011;44940;55.060;73.168;2022-07-22T09:42:45;6.63;;;5.47;;
59157;SDS011;44940;55.060;73.168;2022-07-22T09:45:14;8.75;;;6.28;;
59157;SDS011;44940;55.060;73.168;2022-07-22T09:47:44;7.47;;;6.40;;
59157;SDS011;44940;55.060;73.168;2022-07-22T09:50:31;9.40;;;6.75;;
59157;SDS011;44940;55.060;73.168;2022-07-22T09:53:19;12.63;;;6.00;;
59157;SDS011;44940;55.060;73.168;2022-07-22T09:56:04;9.10;;;6.28;;
59157;SDS011;44940;55.060;73.168;2022-07-22T09:58:52;7.65;;;5.75;;
59157;SDS011;44940;55.060;73.168;2022-07-22T10:01:28;8.48;;;6.68;;
59157;SDS011;44940;55.060;73.168;2022-07-22T10:03:56;7.60;;;6.00;;
59157;SDS011;44940;55.060;73.168;2022-07-22T10:06:27;9.60;;;5.97;;
59157;SDS011;44940;55.060;73.168;2022-07-22T10:08:56;7.30;;;6.22;;
59157;SDS011;44940;55.060;73.168;2022-07-22T10:11:26;8.13;;;6.13;;
59157;SDS011;44940;55.060;73.168;2022-07-22T10:13:58;8.15;;;6.05;;
59157;SDS011;44940;55.060;73.168;2022-07-22T10:16:44;7.85;;;5.85;;
59157;SDS011;44940;55.060;73.168;2022-07-22T10:23:27;9.43;;;5.60;;
59157;SDS011;44940;55.060;73.168;2022-07-22T10:26:03;18.05;;;6.78;;
59157;SDS011;44940;55.060;73.168;2022-07-22T10:37:53;6.18;;;5.07;;
59157;SDS011;44940;55.060;73.168;2022-07-22T10:40:26;7.80;;;4.88;;
59157;SDS011;44940;55.060;73.168;2022-07-22T10:43:06;6.95;;;5.25;;
59157;SDS011;44940;55.060;73.168;2022-07-22T10:45:36;7.88;;;6.00;;
59157;SDS011;44940;55.060;73.168;2022-07-22T10:48:06;7.43;;;5.70;;
59157;SDS011;44940;55.060;73.168;2022-07-22T10:50:40;7.50;;;6.37;;
59157;SDS011;44940;55.060;73.168;2022-07-22T10:53:13;9.57;;;5.63;;
59157;SDS011;44940;55.060;73.168;2022-07-22T10:58:44;8.88;;;5.18;;
59157;SDS011;44940;55.060;73.168;2022-07-22T11:01:18;5.70;;;4.97;;
59157;SDS011;44940;55.060;73.168;2022-07-22T11:03:48;8.80;;;5.30;;
59157;SDS011;44940;55.060;73.168;2022-07-22T11:06:17;7.05;;;4.55;;
59157;SDS011;44940;55.060;73.168;2022-07-22T11:08:49;7.18;;;4.70;;
59157;SDS011;44940;55.060;73.168;2022-07-22T11:11:17;7.88;;;4.80;;
59157;SDS011;44940;55.060;73.168;2022-07-22T11:13:58;11.57;;;4.93;;
59157;SDS011;44940;55.060;73.168;2022-07-22T11:16:26;7.50;;;5.35;;
59157;SDS011;44940;55.060;73.168;2022-07-22T11:18:54;9.23;;;5.03;;
59157;SDS011;44940;55.060;73.168;2022-07-22T11:21:26;6.97;;;4.85;;
59157;SDS011;44940;55.060;73.168;2022-07-22T11:23:55;7.07;;;4.90;;
59157;SDS011;44940;55.060;73.168;2022-07-22T11:26:25;8.55;;;5.53;;
59157;SDS011;44940;55.060;73.168;2022-07-22T11:29:02;10.50;;;5.47;;
59157;SDS011;44940;55.060;73.168;2022-07-22T11:31:29;8.00;;;5.22;;
59157;SDS011;44940;55.060;73.168;2022-07-22T11:34:04;8.35;;;5.60;;
59157;SDS011;44940;55.060;73.168;2022-07-22T11:36:33;10.23;;;6.43;;
59157;SDS011;44940;55.060;73.168;2022-07-22T11:39:00;9.82;;;6.82;;
59157;SDS011;44940;55.060;73.168;2022-07-22T11:41:28;8.60;;;7.28;;
59157;SDS011;44940;55.060;73.168;2022-07-22T11:43:56;7.50;;;5.95;;
59157;SDS011;44940;55.060;73.168;2022-07-22T11:46:26;9.07;;;5.43;;
59157;SDS011;44940;55.060;73.168;2022-07-22T11:48:54;7.13;;;5.43;;
59157;SDS011;44940;55.060;73.168;2022-07-22T11:51:27;6.95;;;5.45;;
59157;SDS011;44940;55.060;73.168;2022-07-22T11:53:58;9.20;;;6.05;;
59157;SDS011;44940;55.060;73.168;2022-07-22T11:56:25;7.57;;;5.82;;
59157;SDS011;44940;55.060;73.168;2022-07-22T11:58:53;7.30;;;6.15;;
59157;SDS011;44940;55.060;73.168;2022-07-22T12:01:22;8.65;;;5.80;;
59157;SDS011;44940;55.060;73.168;2022-07-22T12:03:53;9.75;;;6.68;;
59157;SDS011;44940;55.060;73.168;2022-07-22T12:06:22;23.02;;;11.55;;
59157;SDS011;44940;55.060;73.168;2022-07-22T12:08:50;17.33;;;9.65;;
59157;SDS011;44940;55.060;73.168;2022-07-22T12:11:19;8.20;;;5.93;;
59157;SDS011;44940;55.060;73.168;2022-07-22T12:13:49;7.03;;;5.78;;
59157;SDS011;44940;55.060;73.168;2022-07-22T12:16:22;8.32;;;6.45;;
59157;SDS011;44940;55.060;73.168;2022-07-22T12:18:53;7.85;;;6.47;;
59157;SDS011;44940;55.060;73.168;2022-07-22T12:21:22;8.35;;;6.38;;
59157;SDS011;44940;55.060;73.168;2022-07-22T12:23:54;9.85;;;5.65;;
59157;SDS011;44940;55.060;73.168;2022-07-22T12:26:43;8.38;;;6.05;;
59157;SDS011;44940;55.060;73.168;2022-07-22T12:29:15;9.27;;;5.32;;
59157;SDS011;44940;55.060;73.168;2022-07-22T12:31:44;9.13;;;5.93;;
59157;SDS011;44940;55.060;73.168;2022-07-22T12:34:13;10.38;;;5.70;;
59157;SDS011;44940;55.060;73.168;2022-07-22T12:36:44;5.60;;;5.00;;
59157;SDS011;44940;55.060;73.168;2022-07-22T12:39:13;8.18;;;5.35;;
59157;SDS011;44940;55.060;73.168;2022-07-22T12:41:46;5.85;;;4.68;;
59157;SDS011;44940;55.060;73.168;2022-07-22T12:44:16;6.28;;;5.30;;
59157;SDS011;44940;55.060;73.168;2022-07-22T12:46:47;5.70;;;5.10;;
59157;SDS011;44940;55.060;73.168;2022-07-22T12:49:18;6.78;;;5.07;;
59157;SDS011;44940;55.060;73.168;2022-07-22T12:52:04;8.90;;;5.22;;
59157;SDS011;44940;55.060;73.168;2022-07-22T12:54:36;7.68;;;5.00;;
59157;SDS011;44940;55.060;73.168;2022-07-22T12:57:03;7.40;;;5.20;;
59157;SDS011;44940;55.060;73.168;2022-07-22T12:59:31;9.20;;;5.75;;
59157;SDS011;44940;55.060;73.168;2022-07-22T13:02:01;6.43;;;4.88;;
59157;SDS011;44940;55.060;73.168;2022-07-22T13:04:30;6.45;;;4.78;;
59157;SDS011;44940;55.060;73.168;2022-07-22T13:06:58;5.47;;;4.43;;
59157;SDS011;44940;55.060;73.168;2022-07-22T13:09:25;7.90;;;5.07;;
59157;SDS011;44940;55.060;73.168;2022-07-22T13:11:52;8.80;;;4.78;;
59157;SDS011;44940;55.060;73.168;2022-07-22T13:14:19;8.10;;;4.93;;
59157;SDS011;44940;55.060;73.168;2022-07-22T13:16:49;11.90;;;5.97;;
59157;SDS011;44940;55.060;73.168;2022-07-22T13:19:19;11.30;;;8.05;;
59157;SDS011;44940;55.060;73.168;2022-07-22T13:21:49;12.15;;;8.15;;
59157;SDS011;44940;55.060;73.168;2022-07-22T13:29:28;10.60;;;7.20;;
59157;SDS011;44940;55.060;73.168;2022-07-22T13:31:55;10.73;;;7.82;;
59157;SDS011;44940;55.060;73.168;2022-07-22T13:34:22;10.93;;;7.40;;
59157;SDS011;44940;55.060;73.168;2022-07-22T13:36:51;6.57;;;4.97;;
59157;SDS011;44940;55.060;73.168;2022-07-22T13:39:18;6.32;;;4.30;;
59157;SDS011;44940;55.060;73.168;2022-07-22T13:41:45;6.45;;;4.00;;
59157;SDS011;44940;55.060;73.168;2022-07-22T13:44:14;5.40;;;3.83;;
59157;SDS011;44940;55.060;73.168;2022-07-22T13:46:41;6.22;;;3.85;;
59157;SDS011;44940;55.060;73.168;2022-07-22T13:49:12;7.25;;;4.10;;
59157;SDS011;44940;55.060;73.168;2022-07-22T13:51:41;5.45;;;3.78;;
59157;SDS011;44940;55.060;73.168;2022-07-22T13:54:16;6.55;;;4.65;;
59157;SDS011;44940;55.060;73.168;2022-07-22T13:57:11;7.20;;;4.60;;
59157;SDS011;44940;55.060;73.168;2022-07-22T13:59:42;9.13;;;5.25;;
59157;SDS011;44940;55.060;73.168;2022-07-22T14:02:09;5.15;;;3.75;;
59157;SDS011;44940;55.060;73.168;2022-07-22T14:04:36;4.55;;;3.67;;
59157;SDS011;44940;55.060;73.168;2022-07-22T14:07:29;5.80;;;3.45;;
59157;SDS011;44940;55.060;73.168;2022-07-22T14:10:00;4.93;;;3.20;;
59157;SDS011;44940;55.060;73.168;2022-07-22T14:12:30;5.75;;;3.85;;
59157;SDS011;44940;55.060;73.168;2022-07-22T14:14:57;5.50;;;3.40;;
59157;SDS011;44940;55.060;73.168;2022-07-22T14:17:24;5.63;;;3.25;;
59157;SDS011;44940;55.060;73.168;2022-07-22T14:19:51;5.72;;;3.38;;
59157;SDS011;44940;55.060;73.168;2022-07-22T14:22:18;6.38;;;3.20;;
59157;SDS011;44940;55.060;73.168;2022-07-22T14:24:45;6.95;;;3.17;;
59157;SDS011;44940;55.060;73.168;2022-07-22T14:27:14;8.15;;;3.45;;
59157;SDS011;44940;55.060;73.168;2022-07-22T14:29:41;5.53;;;3.40;;
59157;SDS011;44940;55.060;73.168;2022-07-22T14:32:08;5.47;;;3.20;;
59157;SDS011;44940;55.060;73.168;2022-07-22T14:34:35;3.95;;;3.05;;
59157;SDS011;44940;55.060;73.168;2022-07-22T14:37:01;10.30;;;3.15;;
59157;SDS011;44940;55.060;73.168;2022-07-22T14:39:28;5.65;;;2.88;;
59157;SDS011;44940;55.060;73.168;2022-07-22T14:41:55;4.97;;;2.78;;
59157;SDS011;44940;55.060;73.168;2022-07-22T14:44:24;8.38;;;3.03;;
59157;SDS011;44940;55.060;73.168;2022-07-22T14:46:51;8.07;;;3.88;;
59157;SDS011;44940;55.060;73.168;2022-07-22T14:49:19;6.93;;;3.63;;
59157;SDS011;44940;55.060;73.168;2022-07-22T14:51:46;8.93;;;3.70;;
59157;SDS011;44940;55.060;73.168;2022-07-22T14:54:13;3.85;;;2.80;;
59157;SDS011;44940;55.060;73.168;2022-07-22T14:56:40;4.20;;;2.92;;
59157;SDS011;44940;55.060;73.168;2022-07-22T14:59:07;8.13;;;3.08;;
59157;SDS011;44940;55.060;73.168;2022-07-22T15:01:35;8.27;;;3.35;;
59157;SDS011;44940;55.060;73.168;2022-07-22T15:04:03;13.63;;;3.58;;
59157;SDS011;44940;55.060;73.168;2022-07-22T15:06:30;7.85;;;4.32;;
59157;SDS011;44940;55.060;73.168;2022-07-22T15:08:57;11.68;;;6.57;;
59157;SDS011;44940;55.060;73.168;2022-07-22T15:11:24;17.50;;;7.30;;
59157;SDS011;44940;55.060;73.168;2022-07-22T15:13:51;12.93;;;6.20;;